createdAt,value
2023-05-15T00:01:12.732Z,99.90
2023-05-15T00:04:01.198Z,99.90
2023-05-15T00:06:49.283Z,99.90
2023-05-15T00:09:39.025Z,99.90
2023-05-15T00:12:27.339Z,99.90
2023-05-15T00:15:15.416Z,99.90
2023-05-15T00:18:03.510Z,99.90
2023-05-15T00:20:52.802Z,99.90
2023-05-15T00:23:40.890Z,99.90
2023-05-15T00:26:31.053Z,99.90
2023-05-15T00:29:19.141Z,99.90
2023-05-15T00:32:07.550Z,99.90
2023-05-15T00:34:55.669Z,99.90
2023-05-15T00:37:43.872Z,99.90
2023-05-15T00:40:32.847Z,99.90
2023-05-15T00:43:22.930Z,99.90
2023-05-15T00:46:11.378Z,99.90
2023-05-15T00:48:59.518Z,99.90
2023-05-15T00:51:47.599Z,99.90
2023-05-15T00:54:35.726Z,99.90
2023-05-15T00:57:24.853Z,99.90
2023-05-15T01:00:16.867Z,99.90
2023-05-15T01:03:06.175Z,99.90
2023-05-15T01:05:54.456Z,99.90
2023-05-15T01:08:43.816Z,99.90
2023-05-15T01:11:36.258Z,99.90
2023-05-15T01:14:24.494Z,99.90
2023-05-15T01:17:14.192Z,99.90
2023-05-15T01:20:04.297Z,99.90
2023-05-15T01:23:07.175Z,99.90
2023-05-15T01:26:11.620Z,99.90
2023-05-15T01:29:02.882Z,99.90
2023-05-15T01:31:56.132Z,99.90
2023-05-15T01:34:46.052Z,99.90
2023-05-15T01:37:35.565Z,99.90
2023-05-15T01:40:24.618Z,99.90
2023-05-15T01:43:16.426Z,99.90
2023-05-15T01:46:06.922Z,99.90
2023-05-15T01:48:56.161Z,99.90
2023-05-15T01:51:45.659Z,99.90
2023-05-15T01:54:34.627Z,99.90
2023-05-15T01:57:23.271Z,99.90
2023-05-15T02:00:12.149Z,99.90
2023-05-15T02:03:02.108Z,99.90
2023-05-15T02:05:50.522Z,99.90
2023-05-15T02:08:38.798Z,99.90
2023-05-15T02:11:26.861Z,99.90
2023-05-15T02:14:16.051Z,99.90
2023-05-15T02:17:04.202Z,99.90
2023-05-15T02:19:53.628Z,99.90
2023-05-15T02:22:41.664Z,99.90
2023-05-15T02:25:34.554Z,99.90
2023-05-15T02:28:25.544Z,99.90
2023-05-15T02:31:15.628Z,99.90
2023-05-15T02:34:09.214Z,99.90
2023-05-15T02:37:00.309Z,99.90
2023-05-15T02:39:49.717Z,99.90
2023-05-15T02:42:38.109Z,99.90
2023-05-15T02:45:27.034Z,99.90
2023-05-15T02:48:15.744Z,99.90
2023-05-15T02:51:04.111Z,99.90
2023-05-15T02:53:53.667Z,99.90
2023-05-15T02:56:41.765Z,99.90
2023-05-15T02:59:29.939Z,99.90
2023-05-15T03:02:18.000Z,99.90
2023-05-15T03:05:06.644Z,99.90
2023-05-15T03:07:54.767Z,99.90
2023-05-15T03:10:44.666Z,99.90
2023-05-15T03:13:32.822Z,99.90
2023-05-15T03:16:21.020Z,99.90
2023-05-15T03:19:09.185Z,99.90
2023-05-15T03:21:57.308Z,99.90
2023-05-15T03:24:45.411Z,99.90
2023-05-15T03:27:34.834Z,99.90
2023-05-15T03:30:22.948Z,99.90
2023-05-15T03:33:11.026Z,99.90
2023-05-15T03:35:59.170Z,99.90
2023-05-15T03:38:47.219Z,99.90
2023-05-15T03:41:35.329Z,99.90
2023-05-15T03:44:24.826Z,99.90
2023-05-15T03:47:12.935Z,99.90
2023-05-15T03:50:01.058Z,99.90
2023-05-15T03:52:49.202Z,99.90
2023-05-15T03:55:37.317Z,99.90
2023-05-15T03:58:25.395Z,99.90
2023-05-15T04:01:14.846Z,99.90
2023-05-15T04:04:02.927Z,99.90
2023-05-15T04:06:51.081Z,99.90
2023-05-15T04:09:39.148Z,99.90
2023-05-15T04:12:29.573Z,99.90
2023-05-15T04:15:18.337Z,99.90
2023-05-15T04:18:07.852Z,99.90
2023-05-15T04:20:56.118Z,99.90
2023-05-15T04:23:44.194Z,99.90
2023-05-15T04:26:32.453Z,99.90
2023-05-15T04:29:20.612Z,99.90
2023-05-15T04:32:08.829Z,99.90
2023-05-15T04:34:58.277Z,99.90
2023-05-15T04:37:46.929Z,99.90
2023-05-15T04:40:35.021Z,99.90
2023-05-15T04:43:23.122Z,99.90
2023-05-15T04:46:11.221Z,99.90
2023-05-15T04:48:59.348Z,99.90
2023-05-15T04:51:48.773Z,99.90
2023-05-15T04:54:36.844Z,99.90
2023-05-15T04:57:25.691Z,99.90
2023-05-15T05:00:14.679Z,99.90
2023-05-15T05:03:02.801Z,99.90
2023-05-15T05:05:50.878Z,99.90
2023-05-15T05:08:40.309Z,99.90
2023-05-15T05:11:28.548Z,99.90
2023-05-15T05:14:16.672Z,99.90
2023-05-15T05:17:04.953Z,99.90
2023-05-15T05:19:53.030Z,99.90
2023-05-15T05:22:42.491Z,99.90
2023-05-15T05:25:32.048Z,99.90
2023-05-15T05:28:20.201Z,99.90
2023-05-15T05:31:08.489Z,99.90
2023-05-15T05:33:56.712Z,99.90
2023-05-15T05:36:44.767Z,99.90
2023-05-15T05:39:32.883Z,99.90
2023-05-15T05:42:22.385Z,99.90
2023-05-15T05:45:11.705Z,99.90
2023-05-15T05:47:59.818Z,99.90
2023-05-15T05:50:47.916Z,99.90
2023-05-15T05:53:37.502Z,99.90
2023-05-15T05:56:26.696Z,99.90
2023-05-15T05:59:16.265Z,99.90
2023-05-15T06:02:04.841Z,99.90
2023-05-15T06:04:53.444Z,99.90
2023-05-15T06:07:41.582Z,99.90
2023-05-15T06:10:29.759Z,99.90
2023-05-15T06:13:18.102Z,99.90
2023-05-15T06:16:08.016Z,99.90
2023-05-15T06:18:56.265Z,99.90
2023-05-15T06:21:44.411Z,99.90
2023-05-15T06:24:32.686Z,99.90
2023-05-15T06:27:21.074Z,99.90
2023-05-15T06:30:09.719Z,99.90
2023-05-15T06:32:59.210Z,99.90
2023-05-15T06:35:47.480Z,99.90
2023-05-15T06:38:36.111Z,99.90
2023-05-15T06:41:24.209Z,99.90
2023-05-15T06:44:12.344Z,99.90
2023-05-15T06:47:00.646Z,99.90
2023-05-15T06:49:50.193Z,99.90
2023-05-15T06:52:38.300Z,99.90
2023-05-15T06:55:26.508Z,99.90
2023-05-15T06:58:14.816Z,99.90
2023-05-15T07:01:03.877Z,99.90
2023-05-15T07:03:51.971Z,99.90
2023-05-15T07:06:41.468Z,99.90
2023-05-15T07:09:29.578Z,99.90
2023-05-15T07:12:17.634Z,99.90
2023-05-15T07:15:06.117Z,99.90
2023-05-15T07:17:54.433Z,99.90
2023-05-15T07:20:42.591Z,99.90
2023-05-15T07:23:32.062Z,99.90
2023-05-15T07:26:27.929Z,99.90
2023-05-15T07:29:19.553Z,99.90
2023-05-15T07:32:07.883Z,99.90
2023-05-15T07:34:55.990Z,99.90
2023-05-15T07:37:44.108Z,99.90
2023-05-15T07:40:33.822Z,99.90
2023-05-15T07:43:21.869Z,99.90
2023-05-15T07:46:10.046Z,99.90
2023-05-15T07:48:58.132Z,99.90
2023-05-15T07:51:46.220Z,99.90
2023-05-15T07:54:34.283Z,99.90
2023-05-15T07:57:24.305Z,99.90
2023-05-15T08:00:12.933Z,99.90
2023-05-15T08:03:01.486Z,99.90
2023-05-15T08:05:49.738Z,99.90
2023-05-15T08:08:37.823Z,99.90
2023-05-15T08:11:26.015Z,99.90
2023-05-15T08:14:15.523Z,99.90
2023-05-15T08:17:03.657Z,99.90
2023-05-15T08:19:51.901Z,99.90
2023-05-15T08:22:40.153Z,99.90
2023-05-15T08:25:28.226Z,99.90
2023-05-15T08:28:16.348Z,99.90
2023-05-15T08:31:05.871Z,99.90
2023-05-15T08:33:53.997Z,99.90
2023-05-15T08:36:42.077Z,99.90
2023-05-15T08:39:30.166Z,99.90
2023-05-15T08:42:22.264Z,99.90
2023-05-15T08:45:11.097Z,99.90
2023-05-15T08:48:01.563Z,99.90
2023-05-15T08:50:49.889Z,99.90
2023-05-15T08:53:38.226Z,99.90
2023-05-15T08:56:26.400Z,99.90
2023-05-15T08:59:14.744Z,99.90
2023-05-15T09:02:03.014Z,99.90
2023-05-15T09:04:52.666Z,99.90
2023-05-15T09:07:41.842Z,99.90
2023-05-15T09:10:30.556Z,99.90
2023-05-15T09:13:18.741Z,99.90
2023-05-15T09:16:08.280Z,99.90
2023-05-15T09:18:56.769Z,99.90
2023-05-15T09:21:46.169Z,99.90
2023-05-15T09:24:39.450Z,99.90
2023-05-15T09:27:27.497Z,99.90
2023-05-15T09:30:18.793Z,99.90
2023-05-15T09:33:07.018Z,99.90
2023-05-15T09:35:55.142Z,99.90
2023-05-15T09:38:48.106Z,99.90
2023-05-15T09:41:36.176Z,99.50
2023-05-15T09:44:26.067Z,99.90
2023-05-15T09:47:16.885Z,99.50
2023-05-15T09:50:05.366Z,99.80
2023-05-15T09:52:53.507Z,99.20
2023-05-15T09:55:43.585Z,98.90
2023-05-15T09:58:31.698Z,98.20
2023-05-15T10:01:20.961Z,98.00
2023-05-15T10:04:09.052Z,97.40
2023-05-15T10:06:57.125Z,98.00
2023-05-15T10:09:45.198Z,97.20
2023-05-15T10:12:36.727Z,96.40
2023-05-15T10:15:25.025Z,96.50
2023-05-15T10:18:14.147Z,96.30
2023-05-15T10:21:04.344Z,96.50
2023-05-15T10:23:53.991Z,96.70
2023-05-15T10:26:42.774Z,96.10
2023-05-15T10:29:32.791Z,96.00
2023-05-15T10:32:21.079Z,93.50
2023-05-15T10:35:10.736Z,93.40
2023-05-15T10:37:58.984Z,93.40
2023-05-15T10:40:47.676Z,94.40
2023-05-15T10:43:36.366Z,94.80
2023-05-15T10:46:26.075Z,95.60
2023-05-15T10:49:14.202Z,96.00
2023-05-15T10:52:02.350Z,96.40
2023-05-15T10:54:50.493Z,95.20
2023-05-15T10:57:38.612Z,95.50
2023-05-15T11:00:27.712Z,95.80
2023-05-15T11:03:17.486Z,96.30
2023-05-15T11:06:09.641Z,95.40
2023-05-15T11:09:17.771Z,96.30
2023-05-15T11:12:06.800Z,96.00
2023-05-15T11:15:24.520Z,96.10
2023-05-15T11:18:12.898Z,96.80
2023-05-15T11:21:11.460Z,94.40
2023-05-15T11:24:04.972Z,94.60
2023-05-15T11:26:53.409Z,93.40
2023-05-15T11:29:56.357Z,94.00
2023-05-15T11:32:52.141Z,93.20
2023-05-15T11:35:42.216Z,92.90
2023-05-15T11:38:37.663Z,90.80
2023-05-15T11:41:32.112Z,91.70
2023-05-15T11:44:21.021Z,91.30
2023-05-15T11:47:10.641Z,91.30
2023-05-15T11:49:59.097Z,91.40
2023-05-15T11:52:47.326Z,90.90
2023-05-15T11:55:37.869Z,89.50
2023-05-15T11:58:26.932Z,89.90
2023-05-15T12:01:15.037Z,87.80
2023-05-15T12:04:03.273Z,86.50
2023-05-15T12:06:51.635Z,87.50
2023-05-15T12:09:40.201Z,86.20
2023-05-15T12:12:29.752Z,88.70
2023-05-15T12:15:18.286Z,86.10
2023-05-15T12:18:07.392Z,86.40
2023-05-15T12:20:55.819Z,86.40
2023-05-15T12:24:03.281Z,85.10
2023-05-15T12:26:57.335Z,82.60
2023-05-15T12:29:47.220Z,84.50
2023-05-15T12:32:36.118Z,84.40
2023-05-15T12:35:24.298Z,86.10
2023-05-15T12:38:15.619Z,87.30
2023-05-15T12:41:06.342Z,87.30
2023-05-15T12:43:54.417Z,87.40
2023-05-15T12:46:44.084Z,87.00
2023-05-15T12:49:32.193Z,85.40
2023-05-15T12:52:20.623Z,85.40
2023-05-15T12:55:09.014Z,86.30
2023-05-15T12:57:57.764Z,85.70
2023-05-15T13:00:46.791Z,83.30
2023-05-15T13:03:36.480Z,83.50
2023-05-15T13:06:29.366Z,81.70
2023-05-15T13:09:26.825Z,80.90
2023-05-15T13:12:14.885Z,80.50
2023-05-15T13:15:02.975Z,79.40
2023-05-15T13:17:53.171Z,80.70
2023-05-15T13:20:43.773Z,82.70
2023-05-15T13:23:31.903Z,83.70
2023-05-15T13:26:20.056Z,82.90
2023-05-15T13:29:08.135Z,81.60
2023-05-15T13:31:56.301Z,81.10
2023-05-15T13:34:44.398Z,81.20
2023-05-15T13:37:33.915Z,83.80
2023-05-15T13:40:22.497Z,83.00
2023-05-15T13:43:10.593Z,82.90
2023-05-15T13:45:58.676Z,82.90
2023-05-15T13:48:46.804Z,79.70
2023-05-15T13:51:34.909Z,86.10
2023-05-15T13:54:24.338Z,85.40
2023-05-15T13:57:12.416Z,82.30
2023-05-15T14:00:00.528Z,83.10
2023-05-15T14:02:48.730Z,80.70
2023-05-15T14:05:36.879Z,80.10
2023-05-15T14:08:24.945Z,81.70
2023-05-15T14:11:14.424Z,80.70
2023-05-15T14:14:03.930Z,80.60
2023-05-15T14:16:52.068Z,80.30
2023-05-15T14:19:40.302Z,81.10
2023-05-15T14:22:28.366Z,79.20
2023-05-15T14:25:16.778Z,80.30
2023-05-15T14:28:06.208Z,80.80
2023-05-15T14:30:54.287Z,79.30
2023-05-15T14:33:42.336Z,81.30
2023-05-15T14:36:30.597Z,80.40
2023-05-15T14:39:19.039Z,83.40
2023-05-15T14:42:07.485Z,83.80
2023-05-15T14:44:56.886Z,81.90
2023-05-15T14:47:45.006Z,80.90
2023-05-15T14:50:33.094Z,80.50
2023-05-15T14:53:21.136Z,81.80
2023-05-15T14:56:09.238Z,82.60
2023-05-15T14:58:57.291Z,83.30
2023-05-15T15:01:47.226Z,83.80
2023-05-15T15:04:35.342Z,84.00
2023-05-15T15:07:23.412Z,85.30
2023-05-15T15:10:11.509Z,84.60
2023-05-15T15:12:59.840Z,85.40
2023-05-15T15:15:48.295Z,84.80
2023-05-15T15:18:37.766Z,85.30
2023-05-15T15:21:26.099Z,82.70
2023-05-15T15:24:14.179Z,83.60
2023-05-15T15:27:02.281Z,79.10
2023-05-15T15:29:50.449Z,77.80
2023-05-15T15:32:39.237Z,75.40
2023-05-15T15:35:29.126Z,74.40
2023-05-15T15:38:17.192Z,73.80
2023-05-15T15:41:06.395Z,69.20
2023-05-15T15:43:54.828Z,68.40
2023-05-15T15:46:42.870Z,67.50
2023-05-15T15:49:31.718Z,66.20
2023-05-15T15:52:22.426Z,64.80
2023-05-15T15:55:10.933Z,65.20
2023-05-15T15:57:59.023Z,65.30
2023-05-15T16:00:47.203Z,66.20
2023-05-15T16:03:35.385Z,68.20
2023-05-15T16:06:23.570Z,70.30
2023-05-15T16:09:13.054Z,71.50
2023-05-15T16:12:01.666Z,72.40
2023-05-15T16:14:49.730Z,70.70
2023-05-15T16:17:38.268Z,69.20
2023-05-15T16:20:26.630Z,67.70
2023-05-15T16:23:15.586Z,67.70
2023-05-15T16:26:06.029Z,68.10
2023-05-15T16:28:54.527Z,68.80
2023-05-15T16:31:42.686Z,69.00
2023-05-15T16:34:30.797Z,68.40
2023-05-15T16:37:18.876Z,69.20
2023-05-15T16:40:07.674Z,70.50
2023-05-15T16:42:57.647Z,71.40
2023-05-15T16:45:46.237Z,72.00
2023-05-15T16:48:34.398Z,73.50
2023-05-15T16:51:22.767Z,73.50
2023-05-15T16:54:10.833Z,74.10
2023-05-15T16:56:58.941Z,74.60
2023-05-15T16:59:48.397Z,74.90
2023-05-15T17:02:36.558Z,75.20
2023-05-15T17:05:24.751Z,75.40
2023-05-15T17:08:12.936Z,75.20
2023-05-15T17:11:01.210Z,75.00
2023-05-15T17:13:49.255Z,74.90
2023-05-15T17:16:38.801Z,74.70
2023-05-15T17:19:26.903Z,75.50
2023-05-15T17:22:15.020Z,76.40
2023-05-15T17:25:04.333Z,79.00
2023-05-15T17:27:52.445Z,81.30
2023-05-15T17:30:40.641Z,82.20
2023-05-15T17:33:30.116Z,83.50
2023-05-15T17:36:18.221Z,85.20
2023-05-15T17:39:06.347Z,87.70
2023-05-15T17:41:54.432Z,91.10
2023-05-15T17:44:42.527Z,93.50
2023-05-15T17:47:30.585Z,94.50
2023-05-15T17:50:20.108Z,93.90
2023-05-15T17:53:08.184Z,93.80
2023-05-15T17:55:56.341Z,94.30
2023-05-15T17:58:44.513Z,94.30
2023-05-15T18:01:32.815Z,94.10
2023-05-15T18:04:21.035Z,93.70
2023-05-15T18:07:10.618Z,93.60
2023-05-15T18:09:58.671Z,93.90
2023-05-15T18:12:47.036Z,93.70
2023-05-15T18:15:36.072Z,93.60
2023-05-15T18:18:24.422Z,93.40
2023-05-15T18:21:19.884Z,92.90
2023-05-15T18:24:10.023Z,92.90
2023-05-15T18:26:58.115Z,92.80
2023-05-15T18:29:46.213Z,93.00
2023-05-15T18:32:34.419Z,92.90
2023-05-15T18:35:22.642Z,93.50
2023-05-15T18:38:10.732Z,92.90
2023-05-15T18:41:00.162Z,93.20
2023-05-15T18:43:48.333Z,93.10
2023-05-15T18:46:36.614Z,93.20
2023-05-15T18:49:24.717Z,93.30
2023-05-15T18:52:13.265Z,93.20
2023-05-15T18:55:01.441Z,93.30
2023-05-15T18:57:51.083Z,92.30
2023-05-15T19:00:39.449Z,92.40
2023-05-15T19:03:27.816Z,92.70
2023-05-15T19:06:19.886Z,92.80
2023-05-15T19:09:09.520Z,92.90
2023-05-15T19:11:57.667Z,92.90
2023-05-15T19:14:47.230Z,93.00
2023-05-15T19:17:37.408Z,93.10
2023-05-15T19:20:26.804Z,93.20
2023-05-15T19:23:15.377Z,93.40
2023-05-15T19:26:03.489Z,93.50
2023-05-15T19:28:52.914Z,93.80
2023-05-15T19:31:43.905Z,93.90
2023-05-15T19:34:32.122Z,94.00
2023-05-15T19:37:20.303Z,94.30
2023-05-15T19:40:09.081Z,94.00
2023-05-15T19:42:57.161Z,93.90
2023-05-15T19:45:45.332Z,94.20
2023-05-15T19:48:34.954Z,94.40
2023-05-15T19:51:23.037Z,94.50
2023-05-15T19:54:11.318Z,95.10
2023-05-15T19:57:02.671Z,94.90
2023-05-15T19:59:50.769Z,95.00
2023-05-15T20:02:39.012Z,95.20
2023-05-15T20:05:28.622Z,95.30
2023-05-15T20:08:17.281Z,95.20
2023-05-15T20:11:05.440Z,95.40
2023-05-15T20:13:53.508Z,95.50
2023-05-15T20:16:41.677Z,95.90
2023-05-15T20:19:31.499Z,96.10
2023-05-15T20:22:21.170Z,96.30
2023-05-15T20:25:09.810Z,96.40
2023-05-15T20:27:58.731Z,96.50
2023-05-15T20:30:47.645Z,96.90
2023-05-15T20:33:35.769Z,96.90
2023-05-15T20:36:25.612Z,97.10
2023-05-15T20:39:15.089Z,97.20
2023-05-15T20:42:03.171Z,97.40
2023-05-15T20:44:51.768Z,97.70
2023-05-15T20:47:40.343Z,97.80
2023-05-15T20:50:28.662Z,98.10
2023-05-15T20:53:16.932Z,98.30
2023-05-15T20:56:06.559Z,98.60
2023-05-15T20:58:54.904Z,99.00
2023-05-15T21:01:43.557Z,99.50
2023-05-15T21:04:31.781Z,99.90
2023-05-15T21:07:19.950Z,99.90
2023-05-15T21:10:08.653Z,99.90
2023-05-15T21:12:59.567Z,99.90
2023-05-15T21:15:47.930Z,99.90
2023-05-15T21:18:36.026Z,99.90
2023-05-15T21:21:24.197Z,99.70
2023-05-15T21:24:12.300Z,99.70
2023-05-15T21:27:00.407Z,99.80
2023-05-15T21:29:49.857Z,99.90
2023-05-15T21:32:37.931Z,99.90
2023-05-15T21:35:28.796Z,99.90
2023-05-15T21:38:17.243Z,99.90
2023-05-15T21:41:05.342Z,99.90
2023-05-15T21:43:53.389Z,99.90
2023-05-15T21:46:42.864Z,99.90
2023-05-15T21:49:30.976Z,99.90
2023-05-15T21:52:19.020Z,99.90
2023-05-15T21:55:07.947Z,99.90
2023-05-15T21:57:56.015Z,99.90
2023-05-15T22:00:44.125Z,99.90
2023-05-15T22:03:33.712Z,99.90
2023-05-15T22:06:21.945Z,99.90
2023-05-15T22:09:10.058Z,99.90
2023-05-15T22:11:58.133Z,99.90
2023-05-15T22:14:57.871Z,99.90
2023-05-15T22:17:47.408Z,99.90
2023-05-15T22:20:37.161Z,99.90
2023-05-15T22:23:25.208Z,99.90
2023-05-15T22:26:13.422Z,99.90
2023-05-15T22:29:01.520Z,99.90
2023-05-15T22:31:49.730Z,99.90
2023-05-15T22:34:37.898Z,99.90
2023-05-15T22:37:27.338Z,99.90
2023-05-15T22:40:16.019Z,99.90
2023-05-15T22:43:04.071Z,99.90
2023-05-15T22:45:52.347Z,99.90
2023-05-15T22:48:41.437Z,99.90
2023-05-15T22:51:29.576Z,99.90
2023-05-15T22:54:21.640Z,99.90
2023-05-15T22:57:10.381Z,99.90
2023-05-15T22:59:58.936Z,99.90
2023-05-15T23:02:47.027Z,99.90
2023-05-15T23:05:35.184Z,99.90
2023-05-15T23:08:23.277Z,99.90
2023-05-15T23:11:12.685Z,99.90
2023-05-15T23:14:01.006Z,99.90
2023-05-15T23:16:49.875Z,99.90
2023-05-15T23:19:37.970Z,99.90
2023-05-15T23:22:26.133Z,99.90
2023-05-15T23:25:14.240Z,99.90
2023-05-15T23:28:03.697Z,99.90
2023-05-15T23:30:53.063Z,99.90
2023-05-15T23:33:41.260Z,99.90
2023-05-15T23:36:29.343Z,99.90
2023-05-15T23:39:17.452Z,99.90
2023-05-15T23:42:05.810Z,99.90
2023-05-15T23:44:55.458Z,99.90
2023-05-15T23:47:43.618Z,99.90
2023-05-15T23:50:31.876Z,99.90
2023-05-15T23:53:19.968Z,99.90
2023-05-15T23:56:08.371Z,99.90
2023-05-15T23:58:56.504Z,99.90
